sensor_id;sensor_type;location;lat;lon;timestamp;temperature;humidity
14119;DHT22;7138;49.246;9.100;2022-07-22T00:00:28;18.20;99.90
14119;DHT22;7138;49.246;9.100;2022-07-22T00:02:54;18.10;99.90
14119;DHT22;7138;49.246;9.100;2022-07-22T00:05:22;18.10;99.90
14119;DHT22;7138;49.246;9.100;2022-07-22T00:07:47;18.00;99.90
14119;DHT22;7138;49.246;9.100;2022-07-22T00:10:13;18.00;99.90
14119;DHT22;7138;49.246;9.100;2022-07-22T00:12:40;17.90;99.90
14119;DHT22;7138;49.246;9.100;2022-07-22T00:15:07;18.00;99.90
14119;DHT22;7138;49.246;9.100;2022-07-22T00:17:34;18.00;99.90
14119;DHT22;7138;49.246;9.100;2022-07-22T00:20:02;18.00;99.90
14119;DHT22;7138;49.246;9.100;2022-07-22T00:22:30;17.90;99.90
14119;DHT22;7138;49.246;9.100;2022-07-22T00:24:56;17.90;99.90
14119;DHT22;7138;49.246;9.100;2022-07-22T00:27:22;18.00;99.90
14119;DHT22;7138;49.246;9.100;2022-07-22T00:29:48;17.90;99.90
14119;DHT22;7138;49.246;9.100;2022-07-22T00:32:13;17.80;99.90
14119;DHT22;7138;49.246;9.100;2022-07-22T00:34:39;17.90;99.90
14119;DHT22;7138;49.246;9.100;2022-07-22T00:37:05;17.80;99.90
14119;DHT22;7138;49.246;9.100;2022-07-22T00:39:33;17.80;99.90
14119;DHT22;7138;49.246;9.100;2022-07-22T00:41:59;17.70;99.90
14119;DHT22;7138;49.246;9.100;2022-07-22T00:44:26;17.70;99.90
14119;DHT22;7138;49.246;9.100;2022-07-22T00:46:52;17.60;99.90
14119;DHT22;7138;49.246;9.100;2022-07-22T00:49:17;17.50;99.90
14119;DHT22;7138;49.246;9.100;2022-07-22T00:51:43;17.60;99.90
14119;DHT22;7138;49.246;9.100;2022-07-22T00:54:12;17.60;99.90
14119;DHT22;7138;49.246;9.100;2022-07-22T00:56:40;17.70;99.90
14119;DHT22;7138;49.246;9.100;2022-07-22T00:59:10;17.70;99.90
14119;DHT22;7138;49.246;9.100;2022-07-22T01:01:36;17.60;99.90
14119;DHT22;7138;49.246;9.100;2022-07-22T01:04:03;17.60;99.90
14119;DHT22;7138;49.246;9.100;2022-07-22T01:06:29;17.60;99.90
14119;DHT22;7138;49.246;9.100;2022-07-22T01:08:56;17.60;99.90
14119;DHT22;7138;49.246;9.100;2022-07-22T01:11:23;17.60;99.90
14119;DHT22;7138;49.246;9.100;2022-07-22T01:13:50;17.60;99.90
14119;DHT22;7138;49.246;9.100;2022-07-22T01:16:17;17.50;99.90
14119;DHT22;7138;49.246;9.100;2022-07-22T01:18:44;17.50;99.90
14119;DHT22;7138;49.246;9.100;2022-07-22T01:21:14;17.50;99.90
14119;DHT22;7138;49.246;9.100;2022-07-22T01:23:41;17.50;99.90
14119;DHT22;7138;49.246;9.100;2022-07-22T01:26:07;17.30;99.90
14119;DHT22;7138;49.246;9.100;2022-07-22T01:28:33;17.30;99.90
14119;DHT22;7138;49.246;9.100;2022-07-22T01:31:00;17.30;99.90
14119;DHT22;7138;49.246;9.100;2022-07-22T01:33:26;17.30;99.90
14119;DHT22;7138;49.246;9.100;2022-07-22T01:35:52;17.30;99.90
14119;DHT22;7138;49.246;9.100;2022-07-22T01:38:20;17.30;99.90
14119;DHT22;7138;49.246;9.100;2022-07-22T01:40:46;17.20;99.90
14119;DHT22;7138;49.246;9.100;2022-07-22T01:43:12;17.30;99.90
14119;DHT22;7138;49.246;9.100;2022-07-22T01:45:41;17.20;99.90
14119;DHT22;7138;49.246;9.100;2022-07-22T01:48:07;17.20;99.90
14119;DHT22;7138;49.246;9.100;2022-07-22T01:50:33;17.20;99.90
14119;DHT22;7138;49.246;9.100;2022-07-22T01:52:59;17.10;99.90
14119;DHT22;7138;49.246;9.100;2022-07-22T01:55:26;17.10;99.90
14119;DHT22;7138;49.246;9.100;2022-07-22T01:57:52;17.10;99.90
14119;DHT22;7138;49.246;9.100;2022-07-22T02:00:21;17.20;99.90
14119;DHT22;7138;49.246;9.100;2022-07-22T02:02:47;17.10;99.90
14119;DHT22;7138;49.246;9.100;2022-07-22T02:05:13;17.00;99.90
14119;DHT22;7138;49.246;9.100;2022-07-22T02:07:39;17.00;99.90
14119;DHT22;7138;49.246;9.100;2022-07-22T02:10:05;17.10;99.90
14119;DHT22;7138;49.246;9.100;2022-07-22T02:12:33;17.10;99.90
14119;DHT22;7138;49.246;9.100;2022-07-22T02:14:59;17.00;99.90
14119;DHT22;7138;49.246;9.100;2022-07-22T02:17:25;16.90;99.90
14119;DHT22;7138;49.246;9.100;2022-07-22T02:19:51;17.00;99.90
14119;DHT22;7138;49.246;9.100;2022-07-22T02:22:17;17.00;99.90
14119;DHT22;7138;49.246;9.100;2022-07-22T02:24:43;16.90;99.90
14119;DHT22;7138;49.246;9.100;2022-07-22T02:27:08;17.00;99.90
14119;DHT22;7138;49.246;9.100;2022-07-22T02:29:36;17.00;99.90
14119;DHT22;7138;49.246;9.100;2022-07-22T02:32:02;16.90;99.90
14119;DHT22;7138;49.246;9.100;2022-07-22T02:34:28;16.70;99.90
14119;DHT22;7138;49.246;9.100;2022-07-22T02:36:54;16.60;99.90
14119;DHT22;7138;49.246;9.100;2022-07-22T02:39:20;16.50;99.90
14119;DHT22;7138;49.246;9.100;2022-07-22T02:41:46;16.40;99.90
14119;DHT22;7138;49.246;9.100;2022-07-22T02:44:12;16.40;99.90
14119;DHT22;7138;49.246;9.100;2022-07-22T02:46:39;16.40;99.90
14119;DHT22;7138;49.246;9.100;2022-07-22T02:49:05;16.50;99.90
14119;DHT22;7138;49.246;9.100;2022-07-22T02:51:31;16.60;99.90
14119;DHT22;7138;49.246;9.100;2022-07-22T02:53:57;16.70;99.90
14119;DHT22;7138;49.246;9.100;2022-07-22T02:56:23;16.80;99.90
14119;DHT22;7138;49.246;9.100;2022-07-22T02:58:48;16.70;99.90
14119;DHT22;7138;49.246;9.100;2022-07-22T03:01:18;16.70;99.90
14119;DHT22;7138;49.246;9.100;2022-07-22T03:03:46;16.60;99.90
14119;DHT22;7138;49.246;9.100;2022-07-22T03:06:12;16.60;99.90
14119;DHT22;7138;49.246;9.100;2022-07-22T03:08:39;16.60;99.90
14119;DHT22;7138;49.246;9.100;2022-07-22T03:11:05;16.60;99.90
14119;DHT22;7138;49.246;9.100;2022-07-22T03:13:31;16.50;99.90
14119;DHT22;7138;49.246;9.100;2022-07-22T03:15:57;16.50;99.90
14119;DHT22;7138;49.246;9.100;2022-07-22T03:18:23;16.60;99.90
14119;DHT22;7138;49.246;9.100;2022-07-22T03:20:50;16.50;99.90
14119;DHT22;7138;49.246;9.100;2022-07-22T03:23:16;16.50;99.90
14119;DHT22;7138;49.246;9.100;2022-07-22T03:25:42;16.40;99.90
14119;DHT22;7138;49.246;9.100;2022-07-22T03:28:07;16.50;99.90
14119;DHT22;7138;49.246;9.100;2022-07-22T03:30:33;16.40;99.90
14119;DHT22;7138;49.246;9.100;2022-07-22T03:32:59;16.40;99.90
14119;DHT22;7138;49.246;9.100;2022-07-22T03:35:25;16.40;99.90
14119;DHT22;7138;49.246;9.100;2022-07-22T03:37:52;16.40;99.90
14119;DHT22;7138;49.246;9.100;2022-07-22T03:40:21;16.30;99.90
14119;DHT22;7138;49.246;9.100;2022-07-22T03:42:47;16.40;99.90
14119;DHT22;7138;49.246;9.100;2022-07-22T03:45:13;16.40;99.90
14119;DHT22;7138;49.246;9.100;2022-07-22T03:47:39;16.40;99.90
14119;DHT22;7138;49.246;9.100;2022-07-22T03:50:06;16.30;99.90
14119;DHT22;7138;49.246;9.100;2022-07-22T03:52:32;16.20;99.90
14119;DHT22;7138;49.246;9.100;2022-07-22T03:54:59;16.20;99.90
14119;DHT22;7138;49.246;9.100;2022-07-22T03:57:25;16.20;99.90
14119;DHT22;7138;49.246;9.100;2022-07-22T03:59:53;16.20;99.90
14119;DHT22;7138;49.246;9.100;2022-07-22T04:02:19;16.10;99.90
14119;DHT22;7138;49.246;9.100;2022-07-22T04:04:45;16.10;99.90
14119;DHT22;7138;49.246;9.100;2022-07-22T04:07:11;16.00;99.90
14119;DHT22;7138;49.246;9.100;2022-07-22T04:09:36;16.10;99.90
14119;DHT22;7138;49.246;9.100;2022-07-22T04:12:04;16.30;99.90
14119;DHT22;7138;49.246;9.100;2022-07-22T04:14:30;16.30;99.90
14119;DHT22;7138;49.246;9.100;2022-07-22T04:16:56;16.30;99.90
14119;DHT22;7138;49.246;9.100;2022-07-22T04:19:22;16.30;99.90
14119;DHT22;7138;49.246;9.100;2022-07-22T04:21:48;16.30;99.90
14119;DHT22;7138;49.246;9.100;2022-07-22T04:24:14;16.40;99.90
14119;DHT22;7138;49.246;9.100;2022-07-22T04:26:40;16.30;99.90
14119;DHT22;7138;49.246;9.100;2022-07-22T04:29:07;16.30;99.90
14119;DHT22;7138;49.246;9.100;2022-07-22T04:31:33;16.40;99.90
14119;DHT22;7138;49.246;9.100;2022-07-22T04:33:59;16.50;99.90
14119;DHT22;7138;49.246;9.100;2022-07-22T04:36:25;16.50;99.90
14119;DHT22;7138;49.246;9.100;2022-07-22T04:38:51;16.60;99.90
14119;DHT22;7138;49.246;9.100;2022-07-22T04:41:17;16.70;99.90
14119;DHT22;7138;49.246;9.100;2022-07-22T04:43:42;16.70;99.90
14119;DHT22;7138;49.246;9.100;2022-07-22T04:46:10;16.80;99.90
14119;DHT22;7138;49.246;9.100;2022-07-22T04:48:35;16.80;99.90
14119;DHT22;7138;49.246;9.100;2022-07-22T04:51:03;16.80;99.90
14119;DHT22;7138;49.246;9.100;2022-07-22T04:53:29;16.80;99.90
14119;DHT22;7138;49.246;9.100;2022-07-22T04:55:55;16.90;99.90
14119;DHT22;7138;49.246;9.100;2022-07-22T04:58:21;17.00;99.90
14119;DHT22;7138;49.246;9.100;2022-07-22T05:00:47;17.00;99.90
14119;DHT22;7138;49.246;9.100;2022-07-22T05:03:14;17.20;99.90
14119;DHT22;7138;49.246;9.100;2022-07-22T05:05:40;17.40;99.90
14119;DHT22;7138;49.246;9.100;2022-07-22T05:08:06;17.60;99.90
14119;DHT22;7138;49.246;9.100;2022-07-22T05:10:32;18.10;99.90
14119;DHT22;7138;49.246;9.100;2022-07-22T05:12:58;18.30;99.90
14119;DHT22;7138;49.246;9.100;2022-07-22T05:15:24;18.40;99.90
14119;DHT22;7138;49.246;9.100;2022-07-22T05:17:50;18.90;99.90
14119;DHT22;7138;49.246;9.100;2022-07-22T05:20:18;19.50;99.90
14119;DHT22;7138;49.246;9.100;2022-07-22T05:22:44;20.30;99.90
14119;DHT22;7138;49.246;9.100;2022-07-22T05:25:10;20.70;99.90
14119;DHT22;7138;49.246;9.100;2022-07-22T05:27:36;21.20;99.90
14119;DHT22;7138;49.246;9.100;2022-07-22T05:30:03;21.70;99.90
14119;DHT22;7138;49.246;9.100;2022-07-22T05:32:29;22.00;99.90
14119;DHT22;7138;49.246;9.100;2022-07-22T05:34:55;22.20;99.90
14119;DHT22;7138;49.246;9.100;2022-07-22T05:37:22;22.40;99.90
14119;DHT22;7138;49.246;9.100;2022-07-22T05:39:48;22.80;99.90
14119;DHT22;7138;49.246;9.100;2022-07-22T05:42:14;22.90;99.90
14119;DHT22;7138;49.246;9.100;2022-07-22T05:44:40;23.20;99.90
14119;DHT22;7138;49.246;9.100;2022-07-22T05:47:06;23.50;99.90
14119;DHT22;7138;49.246;9.100;2022-07-22T05:49:32;23.50;99.90
14119;DHT22;7138;49.246;9.100;2022-07-22T05:51:57;23.60;99.90
14119;DHT22;7138;49.246;9.100;2022-07-22T05:54:27;23.60;99.90
14119;DHT22;7138;49.246;9.100;2022-07-22T05:56:53;23.90;99.90
14119;DHT22;7138;49.246;9.100;2022-07-22T05:59:19;24.20;99.90
14119;DHT22;7138;49.246;9.100;2022-07-22T06:01:44;24.40;99.90
14119;DHT22;7138;49.246;9.100;2022-07-22T06:04:10;24.60;99.90
14119;DHT22;7138;49.246;9.100;2022-07-22T06:06:36;24.80;99.90
14119;DHT22;7138;49.246;9.100;2022-07-22T06:09:03;25.00;99.90
14119;DHT22;7138;49.246;9.100;2022-07-22T06:11:30;24.90;99.90
14119;DHT22;7138;49.246;9.100;2022-07-22T06:13:56;24.90;99.90
14119;DHT22;7138;49.246;9.100;2022-07-22T06:16:22;25.60;99.90
14119;DHT22;7138;49.246;9.100;2022-07-22T06:18:47;25.70;99.90
14119;DHT22;7138;49.246;9.100;2022-07-22T06:21:13;25.80;99.90
14119;DHT22;7138;49.246;9.100;2022-07-22T06:23:39;25.80;99.90
14119;DHT22;7138;49.246;9.100;2022-07-22T06:26:05;25.60;99.90
14119;DHT22;7138;49.246;9.100;2022-07-22T06:28:32;25.50;99.90
14119;DHT22;7138;49.246;9.100;2022-07-22T06:30:58;25.40;99.90
14119;DHT22;7138;49.246;9.100;2022-07-22T06:33:24;26.00;99.90
14119;DHT22;7138;49.246;9.100;2022-07-22T06:35:50;26.20;99.90
14119;DHT22;7138;49.246;9.100;2022-07-22T06:38:16;26.00;99.90
14119;DHT22;7138;49.246;9.100;2022-07-22T06:40:42;25.90;99.90
14119;DHT22;7138;49.246;9.100;2022-07-22T06:43:07;25.80;99.90
14119;DHT22;7138;49.246;9.100;2022-07-22T06:45:35;25.60;99.90
14119;DHT22;7138;49.246;9.100;2022-07-22T06:48:01;25.90;99.90
14119;DHT22;7138;49.246;9.100;2022-07-22T06:50:26;25.70;99.90
14119;DHT22;7138;49.246;9.100;2022-07-22T06:52:53;25.70;99.90
14119;DHT22;7138;49.246;9.100;2022-07-22T06:55:22;25.70;99.90
14119;DHT22;7138;49.246;9.100;2022-07-22T06:57:47;25.50;99.90
14119;DHT22;7138;49.246;9.100;2022-07-22T07:00:14;25.60;99.90
14119;DHT22;7138;49.246;9.100;2022-07-22T07:02:42;25.80;99.90
14119;DHT22;7138;49.246;9.100;2022-07-22T07:05:09;25.20;99.90
14119;DHT22;7138;49.246;9.100;2022-07-22T07:07:35;24.70;99.90
14119;DHT22;7138;49.246;9.100;2022-07-22T07:10:01;24.60;99.90
14119;DHT22;7138;49.246;9.100;2022-07-22T07:12:27;24.30;99.90
14119;DHT22;7138;49.246;9.100;2022-07-22T07:14:53;24.90;99.90
14119;DHT22;7138;49.246;9.100;2022-07-22T07:17:19;24.70;99.90
14119;DHT22;7138;49.246;9.100;2022-07-22T07:19:46;24.50;99.90
14119;DHT22;7138;49.246;9.100;2022-07-22T07:22:12;24.80;99.90
14119;DHT22;7138;49.246;9.100;2022-07-22T07:24:38;24.90;99.90
14119;DHT22;7138;49.246;9.100;2022-07-22T07:27:04;25.00;99.90
14119;DHT22;7138;49.246;9.100;2022-07-22T07:29:30;24.80;99.90
14119;DHT22;7138;49.246;9.100;2022-07-22T07:31:56;24.80;99.90
14119;DHT22;7138;49.246;9.100;2022-07-22T07:34:22;24.80;99.90
14119;DHT22;7138;49.246;9.100;2022-07-22T07:36:50;25.00;99.90
14119;DHT22;7138;49.246;9.100;2022-07-22T07:39:15;24.90;99.90
14119;DHT22;7138;49.246;9.100;2022-07-22T07:41:41;25.10;99.90
14119;DHT22;7138;49.246;9.100;2022-07-22T07:44:07;25.20;99.90
14119;DHT22;7138;49.246;9.100;2022-07-22T07:46:33;25.10;99.90
14119;DHT22;7138;49.246;9.100;2022-07-22T07:48:59;25.00;99.90
14119;DHT22;7138;49.246;9.100;2022-07-22T07:51:25;25.20;99.90
14119;DHT22;7138;49.246;9.100;2022-07-22T07:53:52;25.50;99.90
14119;DHT22;7138;49.246;9.100;2022-07-22T07:56:18;25.70;99.90
14119;DHT22;7138;49.246;9.100;2022-07-22T07:58:44;26.00;99.90
14119;DHT22;7138;49.246;9.100;2022-07-22T08:01:10;25.70;99.90
14119;DHT22;7138;49.246;9.100;2022-07-22T08:03:36;25.40;99.90
14119;DHT22;7138;49.246;9.100;2022-07-22T08:06:02;25.20;99.90
14119;DHT22;7138;49.246;9.100;2022-07-22T08:08:28;25.50;99.90
14119;DHT22;7138;49.246;9.100;2022-07-22T08:10:55;25.70;99.90
14119;DHT22;7138;49.246;9.100;2022-07-22T08:13:21;25.70;99.90
14119;DHT22;7138;49.246;9.100;2022-07-22T08:15:47;26.10;99.90
14119;DHT22;7138;49.246;9.100;2022-07-22T08:18:13;26.30;99.90
14119;DHT22;7138;49.246;9.100;2022-07-22T08:20:39;26.60;99.90
14119;DHT22;7138;49.246;9.100;2022-07-22T08:23:06;26.40;99.90
14119;DHT22;7138;49.246;9.100;2022-07-22T08:25:32;26.50;99.90
14119;DHT22;7138;49.246;9.100;2022-07-22T08:27:59;26.70;99.90
14119;DHT22;7138;49.246;9.100;2022-07-22T08:30:25;26.70;99.90
14119;DHT22;7138;49.246;9.100;2022-07-22T08:32:54;26.30;99.90
14119;DHT22;7138;49.246;9.100;2022-07-22T08:35:20;26.20;99.90
14119;DHT22;7138;49.246;9.100;2022-07-22T08:37:46;26.20;99.90
14119;DHT22;7138;49.246;9.100;2022-07-22T08:40:14;26.20;99.90
14119;DHT22;7138;49.246;9.100;2022-07-22T08:42:42;26.40;99.90
14119;DHT22;7138;49.246;9.100;2022-07-22T08:45:11;26.60;99.90
14119;DHT22;7138;49.246;9.100;2022-07-22T08:47:37;26.70;99.90
14119;DHT22;7138;49.246;9.100;2022-07-22T08:50:04;27.00;99.90
14119;DHT22;7138;49.246;9.100;2022-07-22T08:52:31;27.10;99.90
14119;DHT22;7138;49.246;9.100;2022-07-22T08:54:57;27.20;99.90
14119;DHT22;7138;49.246;9.100;2022-07-22T08:57:23;27.30;99.90
14119;DHT22;7138;49.246;9.100;2022-07-22T08:59:50;27.80;99.90
14119;DHT22;7138;49.246;9.100;2022-07-22T09:02:19;27.20;99.90
14119;DHT22;7138;49.246;9.100;2022-07-22T09:04:57;27.60;99.90
14119;DHT22;7138;49.246;9.100;2022-07-22T09:07:26;27.10;99.90
14119;DHT22;7138;49.246;9.100;2022-07-22T09:09:53;27.60;99.90
14119;DHT22;7138;49.246;9.100;2022-07-22T09:12:20;27.50;99.90
14119;DHT22;7138;49.246;9.100;2022-07-22T09:14:49;27.40;99.90
14119;DHT22;7138;49.246;9.100;2022-07-22T09:17:25;27.50;99.90
14119;DHT22;7138;49.246;9.100;2022-07-22T09:19:52;27.60;99.90
14119;DHT22;7138;49.246;9.100;2022-07-22T09:22:36;27.80;99.90
14119;DHT22;7138;49.246;9.100;2022-07-22T09:25:24;27.60;99.90
14119;DHT22;7138;49.246;9.100;2022-07-22T09:27:56;27.70;99.90
14119;DHT22;7138;49.246;9.100;2022-07-22T09:30:38;28.30;99.90
14119;DHT22;7138;49.246;9.100;2022-07-22T09:33:07;28.80;99.90
14119;DHT22;7138;49.246;9.100;2022-07-22T09:35:34;28.20;99.90
14119;DHT22;7138;49.246;9.100;2022-07-22T09:38:01;28.40;99.90
14119;DHT22;7138;49.246;9.100;2022-07-22T09:40:29;28.30;99.90
14119;DHT22;7138;49.246;9.100;2022-07-22T09:43:00;27.90;99.90
14119;DHT22;7138;49.246;9.100;2022-07-22T09:45:28;27.90;99.90
14119;DHT22;7138;49.246;9.100;2022-07-22T09:47:57;28.30;99.90
14119;DHT22;7138;49.246;9.100;2022-07-22T09:50:27;28.30;99.90
14119;DHT22;7138;49.246;9.100;2022-07-22T09:52:56;28.20;99.90
14119;DHT22;7138;49.246;9.100;2022-07-22T09:55:24;28.10;99.90
14119;DHT22;7138;49.246;9.100;2022-07-22T09:57:52;28.10;99.90
14119;DHT22;7138;49.246;9.100;2022-07-22T10:00:25;28.30;99.90
14119;DHT22;7138;49.246;9.100;2022-07-22T10:02:54;28.70;99.90
14119;DHT22;7138;49.246;9.100;2022-07-22T10:05:23;28.40;99.90
14119;DHT22;7138;49.246;9.100;2022-07-22T10:07:52;28.60;99.90
14119;DHT22;7138;49.246;9.100;2022-07-22T10:10:22;28.80;99.90
14119;DHT22;7138;49.246;9.100;2022-07-22T10:12:51;28.70;99.90
14119;DHT22;7138;49.246;9.100;2022-07-22T10:15:18;29.40;99.90
14119;DHT22;7138;49.246;9.100;2022-07-22T10:17:47;29.60;99.90
14119;DHT22;7138;49.246;9.100;2022-07-22T10:20:17;29.60;99.90
14119;DHT22;7138;49.246;9.100;2022-07-22T10:22:55;29.40;99.90
14119;DHT22;7138;49.246;9.100;2022-07-22T10:25:22;29.50;99.90
14119;DHT22;7138;49.246;9.100;2022-07-22T10:27:52;29.50;99.90
14119;DHT22;7138;49.246;9.100;2022-07-22T10:30:24;29.30;99.90
14119;DHT22;7138;49.246;9.100;2022-07-22T10:33:03;29.50;99.90
14119;DHT22;7138;49.246;9.100;2022-07-22T10:35:31;29.30;99.90
14119;DHT22;7138;49.246;9.100;2022-07-22T10:38:05;29.90;99.90
14119;DHT22;7138;49.246;9.100;2022-07-22T10:40:46;30.20;99.90
14119;DHT22;7138;49.246;9.100;2022-07-22T10:43:15;30.40;99.90
14119;DHT22;7138;49.246;9.100;2022-07-22T10:45:45;30.30;99.90
14119;DHT22;7138;49.246;9.100;2022-07-22T10:48:14;29.80;99.90
14119;DHT22;7138;49.246;9.100;2022-07-22T10:51:05;30.00;99.90
14119;DHT22;7138;49.246;9.100;2022-07-22T10:53:53;29.50;99.90
14119;DHT22;7138;49.246;9.100;2022-07-22T10:56:24;29.50;99.90
14119;DHT22;7138;49.246;9.100;2022-07-22T10:58:54;30.00;99.90
14119;DHT22;7138;49.246;9.100;2022-07-22T11:01:28;29.90;99.90
14119;DHT22;7138;49.246;9.100;2022-07-22T11:03:56;30.40;99.90
14119;DHT22;7138;49.246;9.100;2022-07-22T11:06:33;30.30;99.90
14119;DHT22;7138;49.246;9.100;2022-07-22T11:09:03;30.40;99.90
14119;DHT22;7138;49.246;9.100;2022-07-22T11:11:38;30.60;99.90
14119;DHT22;7138;49.246;9.100;2022-07-22T11:14:18;30.50;99.90
14119;DHT22;7138;49.246;9.100;2022-07-22T11:16:48;30.20;99.90
14119;DHT22;7138;49.246;9.100;2022-07-22T11:19:19;30.40;99.90
14119;DHT22;7138;49.246;9.100;2022-07-22T11:21:50;30.50;99.90
14119;DHT22;7138;49.246;9.100;2022-07-22T11:24:20;30.50;99.90
14119;DHT22;7138;49.246;9.100;2022-07-22T11:26:48;30.70;99.90
14119;DHT22;7138;49.246;9.100;2022-07-22T11:29:17;30.60;99.90
14119;DHT22;7138;49.246;9.100;2022-07-22T11:31:49;30.40;99.90
14119;DHT22;7138;49.246;9.100;2022-07-22T11:34:16;30.60;99.90
14119;DHT22;7138;49.246;9.100;2022-07-22T11:36:44;31.00;99.90
14119;DHT22;7138;49.246;9.100;2022-07-22T11:39:12;30.70;99.90
14119;DHT22;7138;49.246;9.100;2022-07-22T11:41:40;30.60;99.90
14119;DHT22;7138;49.246;9.100;2022-07-22T11:44:07;30.90;99.90
14119;DHT22;7138;49.246;9.100;2022-07-22T11:46:37;30.90;99.90
14119;DHT22;7138;49.246;9.100;2022-07-22T11:49:04;30.80;99.90
14119;DHT22;7138;49.246;9.100;2022-07-22T11:51:32;31.40;99.90
14119;DHT22;7138;49.246;9.100;2022-07-22T11:54:00;31.20;99.90
14119;DHT22;7138;49.246;9.100;2022-07-22T11:56:26;30.60;99.90
14119;DHT22;7138;49.246;9.100;2022-07-22T11:58:54;30.70;99.90
14119;DHT22;7138;49.246;9.100;2022-07-22T12:01:23;30.50;99.90
14119;DHT22;7138;49.246;9.100;2022-07-22T12:03:53;30.60;99.90
14119;DHT22;7138;49.246;9.100;2022-07-22T12:06:22;31.00;99.90
14119;DHT22;7138;49.246;9.100;2022-07-22T12:08:51;31.00;99.90
14119;DHT22;7138;49.246;9.100;2022-07-22T12:11:21;31.20;99.90
14119;DHT22;7138;49.246;9.100;2022-07-22T12:13:50;31.10;99.90
14119;DHT22;7138;49.246;9.100;2022-07-22T12:16:23;31.00;99.90
14119;DHT22;7138;49.246;9.100;2022-07-22T12:18:54;31.20;99.90
14119;DHT22;7138;49.246;9.100;2022-07-22T12:21:23;31.60;99.90
14119;DHT22;7138;49.246;9.100;2022-07-22T12:23:52;32.10;99.90
14119;DHT22;7138;49.246;9.100;2022-07-22T12:26:19;31.80;99.90
14119;DHT22;7138;49.246;9.100;2022-07-22T12:28:45;31.20;99.90
14119;DHT22;7138;49.246;9.100;2022-07-22T12:31:11;31.60;99.90
14119;DHT22;7138;49.246;9.100;2022-07-22T12:33:46;31.70;99.90
14119;DHT22;7138;49.246;9.100;2022-07-22T12:36:13;31.90;99.90
14119;DHT22;7138;49.246;9.100;2022-07-22T12:38:40;31.80;99.90
14119;DHT22;7138;49.246;9.100;2022-07-22T12:41:23;31.70;99.90
14119;DHT22;7138;49.246;9.100;2022-07-22T12:43:50;31.20;99.80
14119;DHT22;7138;49.246;9.100;2022-07-22T12:46:17;30.60;99.90
14119;DHT22;7138;49.246;9.100;2022-07-22T12:48:50;30.70;99.90
14119;DHT22;7138;49.246;9.100;2022-07-22T12:51:17;30.60;99.90
14119;DHT22;7138;49.246;9.100;2022-07-22T12:53:43;31.00;99.90
14119;DHT22;7138;49.246;9.100;2022-07-22T12:56:09;31.30;99.90
14119;DHT22;7138;49.246;9.100;2022-07-22T12:58:36;31.70;99.90
14119;DHT22;7138;49.246;9.100;2022-07-22T13:01:05;31.90;99.90
14119;DHT22;7138;49.246;9.100;2022-07-22T13:03:31;31.70;99.90
14119;DHT22;7138;49.246;9.100;2022-07-22T13:06:02;31.50;99.90
14119;DHT22;7138;49.246;9.100;2022-07-22T13:08:30;31.40;99.00
14119;DHT22;7138;49.246;9.100;2022-07-22T13:10:57;31.50;99.90
14119;DHT22;7138;49.246;9.100;2022-07-22T13:13:23;31.50;99.30
14119;DHT22;7138;49.246;9.100;2022-07-22T13:15:50;31.50;99.40
14119;DHT22;7138;49.246;9.100;2022-07-22T13:18:16;31.40;99.40
14119;DHT22;7138;49.246;9.100;2022-07-22T13:20:42;31.50;98.90
14119;DHT22;7138;49.246;9.100;2022-07-22T13:23:10;31.50;98.10
14119;DHT22;7138;49.246;9.100;2022-07-22T13:25:36;30.90;98.90
14119;DHT22;7138;49.246;9.100;2022-07-22T13:28:02;31.20;98.60
14119;DHT22;7138;49.246;9.100;2022-07-22T13:30:29;31.40;99.90
14119;DHT22;7138;49.246;9.100;2022-07-22T13:32:55;31.60;99.70
14119;DHT22;7138;49.246;9.100;2022-07-22T13:35:22;31.80;99.40
14119;DHT22;7138;49.246;9.100;2022-07-22T13:37:48;31.60;98.80
14119;DHT22;7138;49.246;9.100;2022-07-22T13:40:15;31.10;97.90
14119;DHT22;7138;49.246;9.100;2022-07-22T13:42:41;31.10;98.40
14119;DHT22;7138;49.246;9.100;2022-07-22T13:45:08;30.90;99.40
14119;DHT22;7138;49.246;9.100;2022-07-22T13:47:39;31.00;99.90
14119;DHT22;7138;49.246;9.100;2022-07-22T13:50:05;31.20;98.40
14119;DHT22;7138;49.246;9.100;2022-07-22T13:52:32;31.30;98.60
14119;DHT22;7138;49.246;9.100;2022-07-22T13:54:58;31.20;99.20
14119;DHT22;7138;49.246;9.100;2022-07-22T13:57:25;31.20;98.40
14119;DHT22;7138;49.246;9.100;2022-07-22T13:59:51;31.60;99.90
14119;DHT22;7138;49.246;9.100;2022-07-22T14:02:18;31.70;99.00
14119;DHT22;7138;49.246;9.100;2022-07-22T14:04:44;31.50;97.80
14119;DHT22;7138;49.246;9.100;2022-07-22T14:07:09;31.10;97.40
14119;DHT22;7138;49.246;9.100;2022-07-22T14:09:35;31.50;97.90
14119;DHT22;7138;49.246;9.100;2022-07-22T14:12:01;31.40;97.60
14119;DHT22;7138;49.246;9.100;2022-07-22T14:14:28;31.20;98.10
14119;DHT22;7138;49.246;9.100;2022-07-22T14:16:54;31.80;98.70
14119;DHT22;7138;49.246;9.100;2022-07-22T14:19:20;32.00;98.90
14119;DHT22;7138;49.246;9.100;2022-07-22T14:21:48;31.70;96.90
14119;DHT22;7138;49.246;9.100;2022-07-22T14:24:14;31.70;98.10
14119;DHT22;7138;49.246;9.100;2022-07-22T14:26:40;32.10;98.90
14119;DHT22;7138;49.246;9.100;2022-07-22T14:29:07;32.30;95.20
14119;DHT22;7138;49.246;9.100;2022-07-22T14:31:35;32.30;95.20
14119;DHT22;7138;49.246;9.100;2022-07-22T14:34:01;31.80;95.40
14119;DHT22;7138;49.246;9.100;2022-07-22T14:36:27;31.40;94.50
14119;DHT22;7138;49.246;9.100;2022-07-22T14:38:53;31.70;97.20
14119;DHT22;7138;49.246;9.100;2022-07-22T14:41:19;31.90;95.10
14119;DHT22;7138;49.246;9.100;2022-07-22T14:43:45;32.00;95.40
14119;DHT22;7138;49.246;9.100;2022-07-22T14:46:11;31.80;96.70
14119;DHT22;7138;49.246;9.100;2022-07-22T14:48:39;31.90;97.90
14119;DHT22;7138;49.246;9.100;2022-07-22T14:51:06;31.60;95.50
14119;DHT22;7138;49.246;9.100;2022-07-22T14:53:32;31.30;96.90
14119;DHT22;7138;49.246;9.100;2022-07-22T14:55:59;31.70;98.50
14119;DHT22;7138;49.246;9.100;2022-07-22T14:58:25;31.70;96.40
14119;DHT22;7138;49.246;9.100;2022-07-22T15:00:51;31.80;95.40
14119;DHT22;7138;49.246;9.100;2022-07-22T15:03:17;31.60;95.30
14119;DHT22;7138;49.246;9.100;2022-07-22T15:05:44;31.40;95.50
14119;DHT22;7138;49.246;9.100;2022-07-22T15:08:10;31.60;95.20
14119;DHT22;7138;49.246;9.100;2022-07-22T15:10:36;31.40;94.20
14119;DHT22;7138;49.246;9.100;2022-07-22T15:13:03;31.10;94.30
14119;DHT22;7138;49.246;9.100;2022-07-22T15:15:29;31.30;97.00
14119;DHT22;7138;49.246;9.100;2022-07-22T15:17:55;31.30;94.10
14119;DHT22;7138;49.246;9.100;2022-07-22T15:20:21;31.20;94.90
14119;DHT22;7138;49.246;9.100;2022-07-22T15:22:48;31.20;95.80
14119;DHT22;7138;49.246;9.100;2022-07-22T15:25:14;31.70;96.10
14119;DHT22;7138;49.246;9.100;2022-07-22T15:27:40;31.40;93.60
14119;DHT22;7138;49.246;9.100;2022-07-22T15:30:08;31.40;95.60
14119;DHT22;7138;49.246;9.100;2022-07-22T15:32:36;31.50;94.60
14119;DHT22;7138;49.246;9.100;2022-07-22T15:35:03;31.30;93.90
14119;DHT22;7138;49.246;9.100;2022-07-22T15:37:30;31.00;93.80
14119;DHT22;7138;49.246;9.100;2022-07-22T15:39:58;30.90;93.50
14119;DHT22;7138;49.246;9.100;2022-07-22T15:42:24;31.00;93.80
14119;DHT22;7138;49.246;9.100;2022-07-22T15:44:50;31.30;93.30